ADDS METAR Data INFO
IDs: Format: Raw Decoded Include TAF

Data at: 0840 UTC 21 Oct 2017

KDUH 210834Z AUTO 00000KT 10SM CLR 11/08 A3018 RMK AO2 T01060084
KDUH 210815Z AUTO 00000KT 10SM CLR 11/08 A3018 RMK AO2 T01060082
KDUH 210755Z AUTO 16003KT 10SM CLR 11/08 A3017 RMK AO2 T01100083
KDUH 210734Z AUTO 00000KT 10SM CLR 11/08 A3017 RMK AO2 T01050081
KDUH 210715Z AUTO 17003KT 10SM CLR 12/08 A3017 RMK AO2 T01170084
KDUH 210655Z AUTO 19003KT 10SM CLR 12/09 A3017 RMK AO2 T01200085
KDUH 210634Z AUTO 17003KT 10SM CLR 12/09 A3017 RMK AO2 T01170085
KDUH 210615Z AUTO 18003KT 10SM CLR 12/09 A3017 RMK AO2 T01230086
KDUH 210554Z AUTO 18003KT 10SM CLR 13/09 A3017 RMK AO2 T01290085 10175 20129 402520037
KDUH 210534Z AUTO 18003KT 10SM CLR 14/09 A3017 RMK AO2 T01440086
KDUH 210515Z AUTO 18003KT 10SM CLR 15/09 A3016 RMK AO2 T01450085
KDUH 210454Z AUTO 18003KT 10SM CLR 16/08 A3016 RMK AO2 T01550083
KDUH 210435Z AUTO 19004KT 10SM CLR 16/08 A3016 RMK AO2 T01590082
KDUH 210414Z AUTO 18003KT 10SM CLR 16/08 A3016 RMK AO2 T01620081
KDUH 210354Z AUTO 18004KT 10SM CLR 17/08 A3016 RMK AO2 T01660081
KDUH 210335Z AUTO 18004KT 10SM CLR 17/08 A3016 RMK AO2 T01650081
KDUH 210314Z AUTO 17003KT 10SM CLR 17/08 A3016 RMK AO2 T01660081
KDUH 210254Z AUTO 16003KT 10SM CLR 17/08 A3016 RMK AO2 T01710080
KDUH 210234Z AUTO 18004KT 10SM CLR 18/08 A3016 RMK AO2 T01750081
KDUH 210214Z AUTO 17004KT 10SM CLR 17/08 A3015 RMK AO2 T01700084
KDUH 210154Z AUTO 18003KT 10SM CLR 16/09 A3016 RMK AO2 T01610089
KDUH 210134Z AUTO 17003KT 10SM CLR 14/10 A3015 RMK AO2 T01420100
KDUH 210115Z AUTO 16003KT 10SM CLR 14/10 A3015 RMK AO2 T01370102
KDUH 210054Z AUTO 15003KT 7SM CLR 14/10 A3015 RMK AO2 T01350101
KDUH 210034Z AUTO 00000KT 10SM CLR 14/11 A3016 RMK AO2 T01410105
KDUH 210015Z AUTO 00000KT 7SM CLR 14/10 A3016 RMK AO2 T01390101
KDUH 202354Z AUTO 00000KT 10SM CLR 15/11 A3016 RMK AO2 T01510105 10252 20151
KDUH 202334Z AUTO 00000KT 10SM CLR 16/11 A3016 RMK AO2 T01600110
KDUH 202315Z AUTO 00000KT 10SM CLR 17/11 A3016 RMK AO2 T01720111
KDUH 202254Z AUTO 00000KT 10SM CLR 18/11 A3016 RMK AO2 T01800114
KDUH 202235Z AUTO 00000KT 10SM CLR 20/11 A3015 RMK AO2 T01950113
KDUH 202214Z AUTO 00000KT 10SM CLR 22/10 A3015 RMK AO2 T02160104
KDUH 202154Z AUTO 00000KT 10SM CLR 23/08 A3015 RMK AO2 T02310083
KDUH 202135Z AUTO 18004KT 10SM CLR 24/07 A3015 RMK AO2 T02430070
KDUH 202114Z AUTO 21005KT 10SM CLR 25/07 A3016 RMK AO2 T02500069
KDUH 202054Z AUTO 20005KT 10SM CLR 25/07 A3017 RMK AO2 T02510069
KDUH 202035Z AUTO 20004KT 10SM CLR 25/07 A3017 RMK AO2 T02500068
KDUH 202014Z AUTO 20007KT 10SM CLR 25/07 A3017 RMK AO2 T02520070
KDUH 201954Z AUTO 22006KT 10SM CLR 25/07 A3018 RMK AO2 T02510072
KDUH 201935Z AUTO 18003KT 10SM CLR 24/07 A3018 RMK AO2 T02430065
KDUH 201914Z AUTO 16006KT 10SM CLR 25/06 A3019 RMK AO2 T02470063
KDUH 201854Z AUTO 23006KT 10SM CLR 25/06 A3020 RMK AO2 T02460063
KDUH 201835Z AUTO 17005KT 10SM CLR 24/06 A3021 RMK AO2 T02410059
KDUH 201814Z AUTO 19007KT 10SM CLR 24/06 A3022 RMK AO2 T02360057
KDUH 201754Z AUTO 19007KT 140V220 10SM CLR 23/05 A3023 RMK AO2 T02310051 10232 20037
KDUH 201735Z AUTO 15003KT 10SM CLR 23/05 A3023 RMK AO2 T02290046
KDUH 201714Z AUTO 20005KT 10SM CLR 22/04 A3024 RMK AO2 T02220041
KDUH 201654Z AUTO 16005KT 10SM CLR 22/03 A3025 RMK AO2 T02160034
KDUH 201635Z AUTO 19006KT 10SM CLR 21/03 A3026 RMK AO2 T02120033
KDUH 201614Z AUTO 17003KT 10SM CLR 20/02 A3027 RMK AO2 T02040024
KDUH 201554Z AUTO 16005KT 10SM CLR 20/01 A3027 RMK AO2 T02000014
KDUH 201535Z AUTO 16005KT 10SM CLR 19/02 A3028 RMK AO2 T01910022
KDUH 201514Z AUTO 18005KT 10SM CLR 18/03 A3028 RMK AO2 T01840029
KDUH 201454Z AUTO 16006KT 10SM CLR 18/03 A3028 RMK AO2 T01750031
KDUH 201435Z AUTO 19004KT 10SM CLR 17/04 A3028 RMK AO2 T01670036
KDUH 201414Z AUTO 20004KT 10SM CLR 15/04 A3029 RMK AO2 T01540036
KDUH 201355Z AUTO 00000KT 10SM CLR 14/04 A3028 RMK AO2 T01430040
KDUH 201334Z AUTO 00000KT 10SM CLR 12/05 A3028 RMK AO2 T01240046
KDUH 201314Z AUTO 00000KT 10SM CLR 10/06 A3028 RMK AO2 T01010056
KDUH 201255Z AUTO 00000KT 10SM CLR 08/05 A3029 RMK AO2 T00750046
KDUH 201234Z AUTO 00000KT 10SM CLR 05/03 A3028 RMK AO2 T00540032
KDUH 201214Z AUTO 00000KT 10SM CLR 04/01 A3027 RMK AO2 T00370014
KDUH 201155Z AUTO 00000KT 10SM CLR 04/02 A3028 RMK AO2 T00400017 10070 20039
KDUH 201134Z AUTO 00000KT 10SM CLR 05/02 A3027 RMK AO2 T00450021
KDUH 201114Z AUTO 00000KT 10SM CLR 05/02 A3026 RMK AO2 T00450019
KDUH 201055Z AUTO 00000KT 10SM CLR 05/03 A3026 RMK AO2 T00480025
KDUH 201034Z AUTO 00000KT 10SM CLR 05/02 A3026 RMK AO2 T00490023
KDUH 201014Z AUTO 00000KT 10SM CLR 05/02 A3025 RMK AO2 T00500023
KDUH 200955Z AUTO 00000KT 10SM CLR 06/02 A3025 RMK AO2 T00550022
KDUH 200934Z AUTO 00000KT 10SM CLR 06/02 A3025 RMK AO2 T00590020
KDUH 200914Z AUTO 20003KT 10SM CLR 05/02 A3024 RMK AO2 T00510020
KDUH 200854Z AUTO 00000KT 10SM CLR 06/03 A3022 RMK AO2 T00550025
KDUH 200834Z AUTO 00000KT 10SM CLR 06/02 A3021 RMK AO2 T00570022
KDUH 200814Z AUTO 00000KT 10SM CLR 06/02 A3021 RMK AO2 T00550017
KDUH 200755Z AUTO 00000KT 10SM CLR 05/02 A3020 RMK AO2 T00540019
KDUH 200734Z AUTO 00000KT 10SM CLR 05/02 A3021 RMK AO2 T00510016
KDUH 200714Z AUTO 00000KT 10SM CLR 06/02 A3021 RMK AO2 T00580020
KDUH 200655Z AUTO 00000KT 10SM CLR 06/02 A3021 RMK AO2 T00600023
KDUH 200634Z AUTO 00000KT 10SM CLR 07/03 A3021 RMK AO2 T00650026
KDUH 200614Z AUTO 00000KT 10SM CLR 07/03 A3021 RMK AO2 T00670029
KDUH 200555Z AUTO 00000KT 10SM CLR 07/03 A3021 RMK AO2 T00650028 10151 20063 402310063
KDUH 200534Z AUTO 00000KT 7SM CLR 07/03 A3021 RMK AO2 T00650031
KDUH 200514Z AUTO 00000KT 10SM CLR 07/03 A3020 RMK AO2 T00660030
KDUH 200455Z AUTO 00000KT 10SM CLR 07/03 A3020 RMK AO2 T00700033
KDUH 200434Z AUTO 00000KT 10SM CLR 08/03 A3020 RMK AO2 T00750032
KDUH 200414Z AUTO 00000KT 10SM CLR 07/03 A3020 RMK AO2 T00740028
KDUH 200355Z AUTO 00000KT 10SM CLR 08/03 A3020 RMK AO2 T00840034
KDUH 200334Z AUTO 28003KT 10SM CLR 09/05 A3020 RMK AO2 T00880047
KDUH 200314Z AUTO 00000KT 10SM CLR 09/04 A3019 RMK AO2 T00850036
KDUH 200255Z AUTO 00000KT 10SM CLR 09/04 A3019 RMK AO2 T00910037
KDUH 200234Z AUTO 00000KT 10SM CLR 09/04 A3018 RMK AO2 T00890039
KDUH 200214Z AUTO 00000KT 10SM CLR 09/04 A3018 RMK AO2 T00930044
KDUH 200155Z AUTO 00000KT 10SM CLR 10/05 A3018 RMK AO2 T00990045
KDUH 200134Z AUTO 00000KT 10SM CLR 10/06 A3017 RMK AO2 T01030057
KDUH 200114Z AUTO 00000KT 10SM CLR 11/06 A3017 RMK AO2 T01130062
KDUH 200055Z AUTO 00000KT 10SM CLR 11/05 A3017 RMK AO2 T01130046
KDUH 200034Z AUTO 00000KT 10SM CLR 13/04 A3017 RMK AO2 T01340043
KDUH 200014Z AUTO 00000KT 10SM CLR 13/04 A3016 RMK AO2 T01300043
KDUH 192355Z AUTO 00000KT 10SM CLR 15/03 A3016 RMK AO2 T01530034 10231 20150
KDUH 192334Z AUTO 00000KT 10SM CLR 16/03 A3015 RMK AO2 T01610034
KDUH 192314Z AUTO 00000KT 10SM CLR 18/02 A3015 RMK AO2 T01770018
KDUH 192255Z AUTO 00000KT 10SM CLR 18/02 A3014 RMK AO2 T01830023
KDUH 192234Z AUTO 28005KT 10SM CLR 20/01 A3014 RMK AO2 T01950014
KDUH 192214Z AUTO 30003KT 10SM CLR 21/02 A3013 RMK AO2 T02050019
KDUH 192155Z AUTO 28007KT 10SM CLR 21/02 A3012 RMK AO2 T02110019
KDUH 192134Z AUTO 27008G14KT 10SM CLR 22/03 A3012 RMK AO2 T02160025
KDUH 192114Z AUTO 26008G15KT 10SM CLR 22/03 A3012 RMK AO2 T02210033
KDUH 192055Z AUTO 27011G18KT 10SM CLR 23/03 A3011 RMK AO2 T02270029